Time;durP1;ratioP1;P1;durP2;ratioP2;P2;SDS_P1;SDS_P2;PMS_P1;PMS_P2;Temp;Humidity;BMP_temperature;BMP_pressure;BME280_temperature;BME280_humidity;BME280_pressure;Samples;Min_cycle;Max_cycle;Signal;HPM_P1;HPM_P2
2023/06/23 00:04:55;;;;;;;;;9.25;9.00;;;;;20.69;56.93;101504.28;5086308;27;45589;-79
2023/06/23 00:07:20;;;;;;;;;8.00;8.00;;;;;20.71;57.07;101510.31;5097770;27;45651;-79
2023/06/23 00:09:46;;;;;;;;;10.00;8.25;;;;;20.69;57.43;101516.75;5097054;27;46529;-79
2023/06/23 00:12:11;;;;;;;;;10.25;10.25;;;;;20.63;57.32;101507.56;5096701;27;45753;-78
2023/06/23 00:14:36;;;;;;;;;10.25;8.75;;;;;20.64;57.56;101509.25;5097794;27;45566;-81
2023/06/23 00:20:36;;;;;;;;;9.75;9.00;;;;;20.61;57.79;101514.03;5096273;27;45989;-79
2023/06/23 00:23:01;;;;;;;;;12.00;10.75;;;;;20.64;57.75;101522.56;5113243;27;45575;-80
2023/06/23 00:25:27;;;;;;;;;9.75;7.75;;;;;20.62;57.55;101527.19;5096451;27;45832;-78
2023/06/23 00:27:52;;;;;;;;;11.00;9.00;;;;;20.61;57.75;101525.53;5095332;27;45470;-80
2023/06/23 00:30:18;;;;;;;;;10.50;9.50;;;;;20.57;57.75;101529.47;5096548;27;46065;-80
2023/06/23 00:32:43;;;;;;;;;9.00;7.00;;;;;20.57;57.64;101524.13;5096134;27;45535;-80
2023/06/23 00:35:09;;;;;;;;;8.25;8.25;;;;;20.50;57.93;101515.94;5096591;27;45489;-80
2023/06/23 00:37:37;;;;;;;;;9.25;8.50;;;;;20.56;57.81;101522.50;5096190;27;46189;-79
2023/06/23 00:40:04;;;;;;;;;8.00;7.00;;;;;20.54;57.82;101516.47;5096274;27;46164;-80
2023/06/23 00:42:31;;;;;;;;;7.00;6.25;;;;;20.41;58.22;101497.34;5096240;27;45741;-79
2023/06/23 00:44:57;;;;;;;;;8.50;8.50;;;;;20.50;58.04;101518.59;5094378;27;45935;-79
2023/06/23 00:50:44;;;;;;;;;9.25;9.25;;;;;20.44;58.44;101513.88;5094937;27;46014;-79
2023/06/23 00:53:10;;;;;;;;;7.50;7.00;;;;;20.42;58.66;101507.84;5095757;27;45667;-79
2023/06/23 00:55:38;;;;;;;;;11.25;9.50;;;;;20.40;58.73;101507.19;5096526;27;45542;-80
2023/06/23 00:58:05;;;;;;;;;7.00;6.75;;;;;20.26;58.63;101496.16;5094462;27;47414;-80
2023/06/23 01:00:30;;;;;;;;;11.50;9.50;;;;;20.16;58.90;101480.25;5095777;27;46289;-80
2023/06/23 01:03:01;;;;;;;;;13.25;11.25;;;;;20.31;59.09;101516.06;5096065;27;45683;-79
2023/06/23 01:05:30;;;;;;;;;9.00;8.00;;;;;20.24;58.98;101512.31;5111839;27;45528;-79
2023/06/23 01:08:26;;;;;;;;;9.25;8.50;;;;;20.28;59.21;101515.50;5095615;27;47584;-79
2023/06/23 01:10:51;;;;;;;;;10.00;9.75;;;;;20.28;59.22;101519.00;5095674;27;46088;-80
2023/06/23 01:13:27;;;;;;;;;10.50;10.00;;;;;20.27;59.14;101514.66;5095752;27;45678;-80
2023/06/23 01:16:05;;;;;;;;;11.00;9.75;;;;;20.19;59.22;101511.88;5096024;27;45746;-79
2023/06/23 01:18:51;;;;;;;;;9.50;8.25;;;;;20.23;59.39;101526.59;5095744;27;45576;-79
2023/06/23 01:21:29;;;;;;;;;9.75;8.50;;;;;20.19;59.32;101519.88;5095896;27;45828;-81
2023/06/23 01:24:13;;;;;;;;;8.75;8.00;;;;;20.18;59.72;101523.53;5096044;27;45690;-80
2023/06/23 01:27:10;;;;;;;;;9.75;9.00;;;;;20.09;59.78;101517.28;5094457;27;45505;-80
2023/06/23 01:29:39;;;;;;;;;9.00;9.00;;;;;20.09;59.86;101522.59;5095509;27;46621;-80
2023/06/23 01:32:14;;;;;;;;;10.75;9.75;;;;;20.04;60.02;101526.69;5095435;27;45788;-81
2023/06/23 01:34:46;;;;;;;;;7.75;7.50;;;;;19.94;59.93;101520.56;5095654;27;45592;-80
2023/06/23 01:37:18;;;;;;;;;9.75;9.00;;;;;19.82;60.16;101506.63;5095443;27;45882;-79
2023/06/23 01:39:50;;;;;;;;;11.00;10.75;;;;;19.96;60.41;101539.91;5095434;27;46617;-80
2023/06/23 01:42:18;;;;;;;;;8.75;8.75;;;;;19.94;60.32;101531.22;5095699;27;45675;-80
2023/06/23 01:44:55;;;;;;;;;11.00;9.00;;;;;19.85;60.10;101530.28;5095442;27;45773;-78
2023/06/23 01:47:27;;;;;;;;;11.00;10.00;;;;;19.80;60.08;101519.25;5095754;27;45533;-78
2023/06/23 01:49:58;;;;;;;;;8.00;7.50;;;;;19.90;60.32;101532.50;5094208;27;46558;-80
2023/06/23 01:52:25;;;;;;;;;10.50;10.25;;;;;19.83;60.35;101534.91;5096078;27;46550;-80
2023/06/23 01:54:56;;;;;;;;;7.50;7.00;;;;;19.87;60.39;101541.59;5095966;27;45542;-80
2023/06/23 01:57:25;;;;;;;;;9.75;9.00;;;;;19.82;60.45;101545.69;5095379;27;45613;-80
2023/06/23 01:59:52;;;;;;;;;8.75;8.00;;;;;19.82;60.46;101551.00;5096017;27;47581;-81
2023/06/23 02:02:19;;;;;;;;;8.25;7.75;;;;;19.71;60.42;101546.69;5096121;27;45580;-80
2023/06/23 02:04:48;;;;;;;;;8.75;7.75;;;;;19.62;60.01;101543.09;5095588;27;45693;-79
2023/06/23 02:07:17;;;;;;;;;8.00;7.00;;;;;19.62;60.15;101547.56;5095488;27;45867;-79
2023/06/23 02:09:44;;;;;;;;;8.00;8.00;;;;;19.64;60.38;101565.06;5095361;27;46551;-79
2023/06/23 02:12:11;;;;;;;;;7.25;6.25;;;;;19.43;60.48;101543.13;5095205;27;46756;-79
2023/06/23 02:14:38;;;;;;;;;6.50;6.50;;;;;19.62;60.11;101564.38;5093635;27;45745;-79
2023/06/23 02:17:10;;;;;;;;;7.00;5.50;;;;;19.59;60.32;101569.97;5094911;27;45581;-79
2023/06/23 02:19:38;;;;;;;;;8.00;6.25;;;;;19.31;60.14;101532.78;5094735;27;45552;-80
2023/06/23 02:22:08;;;;;;;;;7.75;6.00;;;;;19.43;60.72;101558.22;5094689;27;46202;-79
2023/06/23 02:24:35;;;;;;;;;7.50;7.50;;;;;19.32;60.43;101551.25;5094841;27;45683;-79
2023/06/23 02:27:02;;;;;;;;;8.00;8.00;;;;;19.37;60.63;101562.28;5094589;27;45539;-78
2023/06/23 02:29:28;;;;;;;;;7.00;6.00;;;;;19.33;60.90;101555.56;5094645;27;46648;-79
2023/06/23 02:31:53;;;;;;;;;6.75;6.00;;;;;19.30;60.93;101555.88;5094710;27;45774;-78
2023/06/23 02:34:46;;;;;;;;;7.25;7.00;;;;;19.28;60.51;101561.31;5093883;27;45655;-81
2023/06/23 02:37:48;;;;;;;;;9.00;8.50;;;;;19.22;60.90;101567.19;5110025;27;46116;-78
2023/06/23 02:40:16;;;;;;;;;7.00;6.25;;;;;18.75;60.81;101497.19;5093117;27;46092;-80
2023/06/23 02:42:50;;;;;;;;;7.00;6.75;;;;;19.01;61.58;101553.22;5094540;27;46952;-80
2023/06/23 02:45:24;;;;;;;;;9.25;7.75;;;;;19.06;61.75;101571.38;5094663;27;45644;-80
2023/06/23 02:47:54;;;;;;;;;9.00;8.00;;;;;18.94;61.64;101562.75;5094287;27;45846;-80
2023/06/23 02:50:29;;;;;;;;;7.00;7.00;;;;;18.73;61.93;101538.16;5093041;27;45815;-80
2023/06/23 02:53:18;;;;;;;;;7.50;7.00;;;;;19.00;61.65;101588.72;5094223;27;46232;-78
2023/06/23 02:56:04;;;;;;;;;7.75;7.75;;;;;18.92;62.14;101591.25;5093794;27;45859;-81
2023/06/23 02:58:31;;;;;;;;;7.75;7.00;;;;;18.97;61.96;101602.28;5094578;27;45549;-80
2023/06/23 03:01:02;;;;;;;;;12.00;9.75;;;;;18.73;61.86;101565.50;5094160;27;46640;-79
2023/06/23 03:03:29;;;;;;;;;5.25;4.00;;;;;18.84;61.84;101599.06;5093913;27;47252;-79
2023/06/23 03:05:56;;;;;;;;;7.50;7.00;;;;;18.74;62.39;101582.28;5093528;27;45931;-79
2023/06/23 03:08:24;;;;;;;;;9.00;8.00;;;;;18.66;62.62;101577.69;5093883;27;45652;-79
2023/06/23 03:10:50;;;;;;;;;8.75;8.50;;;;;18.78;62.20;101602.28;5094053;27;46520;-79
2023/06/23 03:13:15;;;;;;;;;8.75;7.25;;;;;18.75;62.56;101599.88;5109142;27;47111;-79
2023/06/23 03:15:40;;;;;;;;;10.00;9.00;;;;;18.74;62.30;101596.41;5093961;27;45674;-78
2023/06/23 03:18:17;;;;;;;;;7.50;7.25;;;;;18.59;62.62;101581.84;5094057;27;45449;-81
2023/06/23 03:20:54;;;;;;;;;10.50;8.50;;;;;18.66;62.16;101601.56;5093491;27;46605;-79
2023/06/23 03:23:24;;;;;;;;;9.25;7.50;;;;;18.57;62.78;101597.06;5094319;27;45878;-80
2023/06/23 03:25:50;;;;;;;;;10.25;7.50;;;;;18.38;62.93;101563.34;5094155;27;45655;-80
2023/06/23 03:28:25;;;;;;;;;10.00;10.00;;;;;18.48;62.94;101581.94;5094318;27;45495;-79
2023/06/23 03:30:58;;;;;;;;;10.00;7.00;;;;;18.53;62.88;101585.00;5093583;27;46258;-81
2023/06/23 03:33:32;;;;;;;;;8.25;8.25;;;;;18.54;63.49;101593.81;5093378;27;47104;-80
2023/06/23 03:36:05;;;;;;;;;6.00;6.00;;;;;18.50;63.16;101598.56;5093797;27;45726;-78
2023/06/23 03:38:34;;;;;;;;;10.00;9.50;;;;;18.44;63.69;101597.28;5094029;27;45653;-79
2023/06/23 03:41:09;;;;;;;;;12.50;9.00;;;;;18.53;63.21;101616.00;5093589;27;45705;-80
2023/06/23 03:43:39;;;;;;;;;9.00;8.00;;;;;18.40;63.71;101600.34;5108955;27;47565;-78
2023/06/23 03:46:12;;;;;;;;;8.75;8.50;;;;;18.43;63.58;101611.53;5093544;27;45510;-79
2023/06/23 03:48:41;;;;;;;;;11.00;9.00;;;;;18.41;63.24;101607.31;5093659;27;45533;-80
2023/06/23 03:51:10;;;;;;;;;9.75;9.00;;;;;18.20;63.48;101575.56;5093767;27;45754;-80
2023/06/23 03:53:38;;;;;;;;;8.00;8.00;;;;;18.42;63.49;101609.84;5094429;27;46327;-79
2023/06/23 03:56:05;;;;;;;;;9.50;8.00;;;;;18.36;63.47;101599.75;5092530;27;45786;-79
2023/06/23 03:58:32;;;;;;;;;10.50;7.00;;;;;18.34;63.87;101601.72;5095794;27;45721;-78
2023/06/23 04:00:59;;;;;;;;;8.50;7.25;;;;;18.36;63.81;101601.56;5108554;27;47237;-77
2023/06/23 04:03:26;;;;;;;;;9.00;8.00;;;;;18.38;63.84;101611.09;5110940;27;45429;-79
2023/06/23 04:05:55;;;;;;;;;10.50;8.75;;;;;18.33;64.01;101615.97;5104013;27;45684;-79
2023/06/23 04:08:22;;;;;;;;;10.50;7.50;;;;;18.35;64.14;101613.19;5099104;27;45525;-79
2023/06/23 04:10:49;;;;;;;;;10.00;8.50;;;;;18.30;63.71;101599.50;5094066;27;45612;-79
2023/06/23 04:13:17;;;;;;;;;8.50;8.00;;;;;18.29;64.21;101597.81;5093777;27;45896;-79
2023/06/23 04:15:45;;;;;;;;;11.50;9.75;;;;;18.48;63.71;101642.13;5093372;27;45771;-80
2023/06/23 04:18:12;;;;;;;;;12.00;10.00;;;;;18.39;63.99;101626.06;5092347;27;45594;-80
2023/06/23 04:20:40;;;;;;;;;9.50;9.00;;;;;18.53;63.88;101658.47;5093351;27;47130;-80
2023/06/23 04:23:06;;;;;;;;;11.75;8.50;;;;;18.51;63.90;101649.84;5093398;27;46305;-79
2023/06/23 04:25:32;;;;;;;;;10.50;9.25;;;;;18.50;64.46;101659.59;5094574;27;45498;-80
2023/06/23 04:28:01;;;;;;;;;7.50;7.25;;;;;18.42;64.11;101628.41;5097489;27;45604;-79
2023/06/23 04:30:34;;;;;;;;;10.00;9.25;;;;;18.43;64.24;101626.59;5096776;27;46587;-81
2023/06/23 04:32:59;;;;;;;;;7.50;7.00;;;;;18.40;64.06;101622.44;5096586;27;46758;-81
2023/06/23 04:35:25;;;;;;;;;8.00;8.00;;;;;18.50;63.99;101632.22;5094648;27;45568;-80
2023/06/23 04:38:01;;;;;;;;;9.00;7.00;;;;;18.55;64.40;101640.66;5096647;27;45876;-80
2023/06/23 04:40:34;;;;;;;;;6.00;5.25;;;;;18.63;64.31;101646.09;5096435;27;46446;-79
2023/06/23 04:43:37;;;;;;;;;10.00;9.00;;;;;18.67;63.79;101652.84;5096413;27;46008;-79
2023/06/23 04:46:15;;;;;;;;;7.00;6.25;;;;;18.69;64.43;101658.84;5092481;27;45550;-81
2023/06/23 04:48:46;;;;;;;;;8.00;8.00;;;;;18.72;63.89;101666.56;5096611;27;45728;-80
2023/06/23 04:51:14;;;;;;;;;7.00;6.25;;;;;18.76;63.96;101670.63;5096522;27;46506;-79
2023/06/23 04:53:47;;;;;;;;;8.25;7.75;;;;;18.79;63.77;101662.34;5096551;27;46627;-80
2023/06/23 04:56:18;;;;;;;;;8.00;7.50;;;;;18.78;63.83;101672.16;5095963;27;45458;-79
2023/06/23 04:58:50;;;;;;;;;7.00;7.00;;;;;18.82;64.18;101684.19;5096901;27;45678;-80
2023/06/23 05:01:16;;;;;;;;;6.50;6.50;;;;;18.79;64.18;101676.47;5095823;27;45540;-80
2023/06/23 05:03:44;;;;;;;;;9.75;7.50;;;;;18.84;64.05;101687.53;5094661;27;46110;-79
2023/06/23 05:06:12;;;;;;;;;9.00;8.00;;;;;18.85;64.11;101685.72;5112679;27;45725;-80
2023/06/23 05:08:38;;;;;;;;;9.75;7.50;;;;;18.86;64.27;101679.44;5095148;27;45819;-80
2023/06/23 05:11:06;;;;;;;;;7.00;6.00;;;;;18.83;64.00;101669.94;5096420;27;46347;-80
2023/06/23 05:13:34;;;;;;;;;9.00;8.25;;;;;18.86;63.78;101680.28;5095992;27;47140;-80
2023/06/23 05:16:02;;;;;;;;;7.25;6.25;;;;;18.88;64.15;101674.84;5111523;27;46148;-75
2023/06/23 05:18:29;;;;;;;;;7.00;7.00;;;;;18.95;63.83;101685.75;5095754;27;45511;-75
2023/06/23 05:24:20;;;;;;;;;8.75;7.50;;;;;18.93;64.41;101682.41;5095254;27;45755;-74
2023/06/23 05:26:48;;;;;;;;;7.25;6.50;;;;;19.00;63.74;101691.50;5095282;27;46002;-75
2023/06/23 05:29:17;;;;;;;;;7.50;6.25;;;;;18.98;63.97;101696.94;5095469;27;45568;-73
2023/06/23 05:31:44;;;;;;;;;3.75;3.75;;;;;19.00;64.16;101699.47;5095642;27;46769;-76
2023/06/23 05:34:15;;;;;;;;;8.00;7.00;;;;;19.00;63.90;101708.25;5095556;27;46140;-76
2023/06/23 05:36:43;;;;;;;;;7.25;6.50;;;;;19.02;64.11;101701.00;5093841;27;45675;-74
2023/06/23 05:39:11;;;;;;;;;6.50;6.25;;;;;19.05;63.81;101702.56;5095383;27;45477;-77
2023/06/23 05:41:36;;;;;;;;;9.00;7.00;;;;;19.07;63.75;101701.44;5095572;27;45891;-76
2023/06/23 05:44:02;;;;;;;;;7.25;7.00;;;;;19.10;64.33;101710.94;5093849;27;48260;-77
2023/06/23 05:46:29;;;;;;;;;5.00;4.75;;;;;19.09;63.94;101707.47;5095055;27;45668;-77
2023/06/23 05:49:01;;;;;;;;;6.00;5.75;;;;;19.11;64.31;101702.00;5093827;27;45998;-77
2023/06/23 05:51:29;;;;;;;;;9.75;7.00;;;;;19.08;63.95;101697.81;5095116;27;45952;-79
2023/06/23 05:54:01;;;;;;;;;6.75;6.25;;;;;19.13;64.08;101705.34;5093807;27;48319;-80
2023/06/23 05:56:34;;;;;;;;;7.00;6.50;;;;;19.15;64.14;101698.09;5095289;27;45669;-78
2023/06/23 05:59:18;;;;;;;;;6.50;5.25;;;;;19.19;64.37;101700.34;5095369;27;45804;-81
2023/06/23 06:01:49;;;;;;;;;8.50;7.25;;;;;19.22;64.08;101705.38;5110178;27;66333;-78
2023/06/23 06:08:10;;;;;;;;;6.50;6.00;;;;;19.28;64.09;101720.75;5094515;27;45590;-81
2023/06/23 06:10:38;;;;;;;;;9.75;7.00;;;;;19.25;63.58;101712.22;5094929;27;45800;-78
2023/06/23 06:13:22;;;;;;;;;6.75;6.75;;;;;19.21;64.10;101701.06;5094746;27;47077;-75
2023/06/23 06:15:51;;;;;;;;;6.00;6.00;;;;;19.28;64.23;101718.09;5094784;27;47367;-77
2023/06/23 06:18:19;;;;;;;;;7.25;7.25;;;;;19.21;64.08;101709.03;5095026;27;45737;-80
2023/06/23 06:24:10;;;;;;;;;8.00;7.75;;;;;19.38;63.99;101717.28;5095528;27;45741;-78
2023/06/23 06:26:35;;;;;;;;;8.00;7.00;;;;;19.41;64.01;101722.31;5094958;27;46291;-80
2023/06/23 06:29:05;;;;;;;;;7.00;7.00;;;;;19.45;63.69;101723.75;5094585;27;45649;-79
2023/06/23 06:31:32;;;;;;;;;6.00;6.00;;;;;19.49;63.65;101725.13;5094833;27;45913;-78
2023/06/23 06:34:00;;;;;;;;;7.50;6.00;;;;;19.50;63.63;101719.69;5094825;27;46677;-75
2023/06/23 06:39:49;;;;;;;;;7.25;7.00;;;;;19.57;63.41;101714.66;5094483;27;45583;-77
2023/06/23 06:42:14;;;;;;;;;7.00;7.00;;;;;19.62;63.49;101720.41;5093714;27;45785;-76
2023/06/23 06:44:39;;;;;;;;;7.00;7.00;;;;;19.67;63.25;101724.31;5094836;27;46477;-78
2023/06/23 06:47:08;;;;;;;;;10.25;8.75;;;;;19.70;63.45;101733.84;5094013;27;46611;-74
2023/06/23 06:49:35;;;;;;;;;9.00;8.00;;;;;19.73;63.08;101727.38;5093956;27;45507;-78
2023/06/23 06:52:03;;;;;;;;;7.50;7.50;;;;;19.77;63.51;101736.75;5093559;27;45562;-75
2023/06/23 06:54:28;;;;;;;;;9.25;8.75;;;;;19.75;63.22;101720.97;5094727;27;47544;-79
2023/06/23 06:56:58;;;;;;;;;8.75;7.50;;;;;19.76;63.34;101725.28;5095071;27;46278;-73
2023/06/23 06:59:23;;;;;;;;;11.00;8.75;;;;;19.63;63.27;101685.69;5094385;27;45540;-74
2023/06/23 07:01:49;;;;;;;;;9.25;8.00;;;;;19.83;63.12;101714.91;5094805;27;45756;-76
2023/06/23 07:04:15;;;;;;;;;10.50;9.00;;;;;19.90;63.00;101722.19;5092578;27;47426;-79
2023/06/23 07:10:03;;;;;;;;;6.25;6.25;;;;;20.02;62.79;101721.06;5094124;27;45718;-73
2023/06/23 07:12:31;;;;;;;;;8.00;8.00;;;;;20.03;62.75;101721.88;5092967;27;45864;-75
2023/06/23 07:14:56;;;;;;;;;8.00;6.25;;;;;20.10;62.88;101707.88;5094519;27;45757;-76
2023/06/23 07:17:22;;;;;;;;;7.75;6.75;;;;;20.10;62.57;101699.88;5094478;27;46023;-74
2023/06/23 07:19:47;;;;;;;;;6.50;6.50;;;;;20.18;62.45;101699.19;5097841;27;45674;-76
2023/06/23 07:25:34;;;;;;;;;10.00;8.00;;;;;20.18;62.19;101674.38;5094689;27;46132;-78
2023/06/23 07:28:00;;;;;;;;;10.00;9.00;;;;;20.35;61.95;101695.78;5094177;27;45605;-76
2023/06/23 07:30:25;;;;;;;;;9.75;8.00;;;;;20.39;61.98;101697.19;5093947;27;45556;-75
2023/06/23 07:32:51;;;;;;;;;9.50;7.25;;;;;20.40;61.90;101695.38;5094232;27;45513;-76
2023/06/23 07:35:17;;;;;;;;;9.00;9.00;;;;;20.43;61.87;101697.72;5094036;27;46586;-81
2023/06/23 07:37:42;;;;;;;;;9.50;9.00;;;;;20.49;61.50;101707.78;5093887;27;45608;-81
2023/06/23 07:40:08;;;;;;;;;8.75;7.75;;;;;20.53;61.51;101707.34;5094283;27;45639;-78
2023/06/23 07:42:33;;;;;;;;;16.75;14.75;;;;;20.59;61.80;101710.41;5095716;27;45758;-78
2023/06/23 07:45:01;;;;;;;;;7.25;6.75;;;;;20.61;61.34;101706.63;5095369;27;45581;-80
2023/06/23 07:47:27;;;;;;;;;8.75;8.00;;;;;20.70;61.29;101711.06;5094026;27;47237;-75
2023/06/23 07:49:52;;;;;;;;;7.00;6.75;;;;;20.75;61.09;101714.13;5093862;27;46066;-75
2023/06/23 07:55:40;;;;;;;;;6.25;6.00;;;;;20.81;60.64;101707.34;5093540;27;46051;-76
2023/06/23 07:58:05;;;;;;;;;5.50;5.50;;;;;20.89;60.50;101720.78;5093481;27;46626;-75
2023/06/23 08:00:31;;;;;;;;;6.00;6.00;;;;;20.95;60.11;101717.50;5096635;27;45717;-75
2023/06/23 08:02:56;;;;;;;;;9.00;7.50;;;;;20.87;60.15;101701.44;5097331;27;45811;-78
2023/06/23 08:05:22;;;;;;;;;5.00;4.00;;;;;21.00;60.01;101719.75;5096711;27;46385;-75
2023/06/23 08:07:48;;;;;;;;;7.00;6.25;;;;;21.07;59.55;101721.66;5096685;27;46462;-76
2023/06/23 08:10:13;;;;;;;;;8.00;8.00;;;;;21.05;59.69;101720.13;5097333;27;45563;-76
2023/06/23 08:12:39;;;;;;;;;5.50;5.50;;;;;21.05;59.20;101718.31;5097016;27;45892;-75
2023/06/23 08:15:06;;;;;;;;;8.75;8.00;;;;;21.18;59.52;101733.94;5095336;27;48304;-76
2023/06/23 08:17:31;;;;;;;;;7.00;6.75;;;;;21.22;59.19;101733.50;5095452;27;48593;-74
2023/06/23 08:19:56;;;;;;;;;6.75;6.25;;;;;21.18;59.59;101732.13;5097221;27;45709;-78
2023/06/23 08:25:44;;;;;;;;;7.00;6.00;;;;;21.43;59.30;101754.53;5096820;27;45550;-77
2023/06/23 08:28:10;;;;;;;;;7.75;7.00;;;;;21.48;59.22;101743.44;5096393;27;45978;-75
2023/06/23 08:30:35;;;;;;;;;7.50;6.00;;;;;21.56;59.07;101752.34;5096884;27;45653;-73
2023/06/23 08:33:00;;;;;;;;;8.50;6.00;;;;;21.57;58.77;101747.84;5097112;27;45530;-75
2023/06/23 08:35:27;;;;;;;;;6.75;5.75;;;;;21.67;59.11;101753.94;5096454;27;45504;-77
2023/06/23 08:41:16;;;;;;;;;5.25;5.25;;;;;21.81;58.54;101755.25;5096813;27;45536;-79
2023/06/23 08:43:44;;;;;;;;;8.75;7.75;;;;;21.80;58.10;101742.91;5096977;27;45869;-77
2023/06/23 08:46:14;;;;;;;;;6.75;6.00;;;;;21.93;57.84;101760.19;5096937;27;47018;-77
2023/06/23 08:48:45;;;;;;;;;5.75;5.75;;;;;21.99;57.87;101761.41;5096295;27;46485;-77
2023/06/23 08:51:10;;;;;;;;;5.50;5.00;;;;;22.03;57.56;101768.13;5096338;27;45608;-76
2023/06/23 08:53:36;;;;;;;;;6.00;5.25;;;;;22.04;57.97;101761.78;5096285;27;45784;-76
2023/06/23 08:56:02;;;;;;;;;6.25;6.00;;;;;22.14;57.98;101763.38;5095991;27;47331;-76
2023/06/23 08:58:27;;;;;;;;;7.75;6.00;;;;;;;;5096725;27;45780;-76
2023/06/23 09:00:53;;;;;;;;;5.67;5.33;;;;;22.24;57.60;101767.81;5096402;27;45551;-78
2023/06/23 09:03:25;;;;;;;;;5.25;5.25;;;;;22.27;57.56;101754.97;5096488;27;45750;-79
2023/06/23 09:05:51;;;;;;;;;3.75;3.75;;;;;22.37;57.51;101769.03;5095040;27;46621;-79
2023/06/23 09:11:42;;;;;;;;;0.00;0.00;;;;;22.47;57.11;101774.28;5095062;27;45677;-78
2023/06/23 09:14:09;;;;;;;;;6.00;6.00;;;;;22.54;56.83;101767.31;5096166;27;45442;-81
2023/06/23 09:16:35;;;;;;;;;4.25;4.25;;;;;22.60;56.46;101770.19;5095825;27;46646;-80
2023/06/23 09:19:02;;;;;;;;;4.00;4.00;;;;;22.66;55.51;101762.53;5095667;27;45694;-80
2023/06/23 09:21:28;;;;;;;;;4.00;3.50;;;;;22.74;55.64;101774.13;5095837;27;45703;-80
2023/06/23 09:24:05;;;;;;;;;5.00;4.50;;;;;22.82;55.02;101781.34;5095946;27;45707;-77
2023/06/23 09:26:49;;;;;;;;;6.50;5.00;;;;;22.89;54.93;101769.84;5095601;27;46776;-76
2023/06/23 09:29:22;;;;;;;;;3.75;3.50;;;;;22.98;54.62;101770.72;5095362;27;47181;-76
2023/06/23 09:31:49;;;;;;;;;5.00;5.00;;;;;23.02;55.41;101769.41;5095908;27;45703;-76
2023/06/23 09:34:25;;;;;;;;;4.25;4.00;;;;;23.11;54.48;101775.59;5096306;27;45767;-76
2023/06/23 09:36:55;;;;;;;;;7.50;5.00;;;;;23.17;54.52;101781.16;5096160;27;46593;-73
2023/06/23 09:39:21;;;;;;;;;2.00;2.00;;;;;23.23;54.13;101771.63;5097802;27;47131;-79
2023/06/23 09:41:53;;;;;;;;;5.75;5.25;;;;;23.29;54.02;101763.81;5097575;27;45632;-76
2023/06/23 09:44:18;;;;;;;;;6.50;4.75;;;;;23.36;54.08;101766.66;5097448;27;45489;-80
2023/06/23 09:46:44;;;;;;;;;4.75;4.00;;;;;23.33;52.52;101753.59;5095974;27;46360;-79
2023/06/23 09:49:09;;;;;;;;;4.00;4.00;;;;;23.13;52.35;101718.31;5095425;27;46309;-80
2023/06/23 09:51:45;;;;;;;;;4.00;4.00;;;;;23.41;52.41;101767.00;5095510;27;45443;-75
2023/06/23 09:54:10;;;;;;;;;5.75;5.75;;;;;23.51;52.84;101759.69;5095282;27;45505;-80
2023/06/23 09:56:36;;;;;;;;;6.50;4.00;;;;;23.55;52.34;101763.72;5095321;27;46525;-77
2023/06/23 09:59:02;;;;;;;;;6.00;4.50;;;;;23.59;51.98;101769.59;5094978;27;46991;-75
2023/06/23 10:01:27;;;;;;;;;5.00;4.00;;;;;23.63;51.84;101763.75;5095237;27;45666;-75
2023/06/23 10:03:54;;;;;;;;;4.00;4.00;;;;;23.65;52.04;101755.53;5095444;27;45526;-75
2023/06/23 10:13:04;;;;;;;;;4.50;4.50;;;;;23.88;51.36;101753.03;5053477;28;45769;-74
2023/06/23 10:15:29;;;;;;;;;2.50;2.50;;;;;23.95;50.79;101752.19;5053345;28;45488;-76
2023/06/23 10:17:55;;;;;;;;;4.00;3.00;;;;;23.97;50.73;101752.03;5052309;28;46296;-77
2023/06/23 10:20:21;;;;;;;;;6.00;4.50;;;;;24.06;50.22;101759.06;5052198;28;46085;-80
2023/06/23 10:22:48;;;;;;;;;5.00;4.00;;;;;24.11;49.83;101756.72;5052083;28;45944;-79
2023/06/23 10:25:14;;;;;;;;;3.75;3.75;;;;;24.14;49.60;101759.88;5052870;28;45728;-77
2023/06/23 10:27:43;;;;;;;;;3.25;3.00;;;;;24.18;49.36;101758.56;5051910;28;47640;-83
2023/06/23 10:30:12;;;;;;;;;5.00;4.25;;;;;24.18;49.11;101739.00;5051759;28;47387;-76
2023/06/23 10:32:44;;;;;;;;;4.00;3.00;;;;;24.24;48.89;101747.16;5052098;28;45625;-79
2023/06/23 10:35:11;;;;;;;;;5.00;4.00;;;;;24.20;49.06;101735.13;5052126;28;45585;-81
2023/06/23 10:37:39;;;;;;;;;5.00;4.50;;;;;24.38;48.54;101748.31;5052226;28;45739;-84
2023/06/23 10:40:05;;;;;;;;;6.00;5.00;;;;;24.26;48.32;101717.53;5052030;28;45894;-84
2023/06/23 10:42:34;;;;;;;;;6.50;4.75;;;;;24.46;48.43;101744.78;5051636;28;45654;-83
2023/06/23 10:45:01;;;;;;;;;5.00;4.75;;;;;24.50;48.83;101738.91;5052336;27;45634;-82
2023/06/23 10:47:27;;;;;;;;;6.00;4.00;;;;;24.42;48.00;101722.84;5094718;27;46713;-77
2023/06/23 10:49:53;;;;;;;;;5.00;4.00;;;;;24.50;48.28;101724.69;5095423;27;46601;-82
2023/06/23 10:52:22;;;;;;;;;5.00;4.00;;;;;24.48;47.85;101727.53;5096683;27;45650;-81
2023/06/23 10:54:47;;;;;;;;;5.75;5.00;;;;;24.61;47.50;101738.56;5098071;27;45606;-82
2023/06/23 10:57:14;;;;;;;;;3.25;3.25;;;;;24.64;47.90;101743.56;5095756;27;46495;-84
2023/06/23 10:59:44;;;;;;;;;5.50;4.25;;;;;24.71;47.21;101734.81;5096888;27;46272;-84
2023/06/23 11:02:18;;;;;;;;;4.75;4.25;;;;;24.73;47.03;101738.16;5097228;27;45660;-83
2023/06/23 11:04:55;;;;;;;;;4.25;3.00;;;;;24.70;46.61;101731.31;5096444;27;45698;-79
2023/06/23 11:07:21;;;;;;;;;4.25;3.25;;;;;24.72;46.17;101734.66;5095937;27;45804;-78
2023/06/23 11:10:05;;;;;;;;;5.00;5.00;;;;;24.85;46.64;101742.97;5095552;27;47604;-81
2023/06/23 11:12:32;;;;;;;;;4.00;4.00;;;;;24.93;46.03;101756.38;5095107;27;45536;-82
2023/06/23 11:15:03;;;;;;;;;4.75;4.50;;;;;24.89;45.95;101728.22;5095139;27;45592;-80
2023/06/23 11:17:29;;;;;;;;;4.00;4.00;;;;;25.03;45.96;101748.97;5094848;27;46372;-84
2023/06/23 11:19:54;;;;;;;;;2.25;2.25;;;;;25.06;46.04;101751.28;5095063;27;46041;-76
2023/06/23 11:22:21;;;;;;;;;5.00;5.00;;;;;25.05;46.30;101732.66;5094559;27;45785;-80
2023/06/23 11:24:53;;;;;;;;;4.50;4.50;;;;;25.17;46.41;101743.84;5094748;27;45695;-81
2023/06/23 11:27:19;;;;;;;;;5.00;5.00;;;;;25.14;46.21;101738.84;5094158;27;46697;-84
2023/06/23 11:30:16;;;;;;;;;5.25;4.50;;;;;25.28;46.41;101735.38;5092946;27;46989;-82
2023/06/23 11:32:44;;;;;;;;;5.00;3.75;;;;;25.31;45.90;101735.06;5094804;27;45588;-84
2023/06/23 11:35:11;;;;;;;;;5.75;4.50;;;;;25.36;45.98;101738.03;5097343;27;45545;-83
2023/06/23 11:37:38;;;;;;;;;6.00;4.00;;;;;25.29;45.79;101715.59;5098108;27;45843;-81
2023/06/23 11:40:09;;;;;;;;;5.00;5.00;;;;;25.41;45.34;101736.47;5097691;27;45963;-84
2023/06/23 11:42:34;;;;;;;;;2.50;2.25;;;;;25.38;45.12;101728.78;5097794;27;45660;-82
2023/06/23 11:45:00;;;;;;;;;5.00;4.50;;;;;25.46;45.15;101738.63;5114457;27;45486;-82
2023/06/23 11:47:27;;;;;;;;;5.50;4.00;;;;;25.50;45.02;101735.41;5098840;27;46588;-80
2023/06/23 11:49:55;;;;;;;;;5.50;5.00;;;;;25.52;44.95;101740.59;5105990;27;45659;-79
2023/06/23 11:52:21;;;;;;;;;5.00;4.25;;;;;25.58;44.67;101734.56;5104362;27;45608;-80
2023/06/23 11:54:48;;;;;;;;;5.00;4.00;;;;;25.63;44.67;101728.63;5103557;27;45681;-81
2023/06/23 11:57:20;;;;;;;;;5.00;5.00;;;;;25.65;44.99;101726.59;5098649;27;45579;-82
2023/06/23 11:59:46;;;;;;;;;4.75;4.00;;;;;25.78;44.56;101729.53;5097979;27;46981;-80
2023/06/23 12:02:12;;;;;;;;;4.75;4.50;;;;;25.77;44.92;101725.16;5097812;27;45658;-82
2023/06/23 12:04:39;;;;;;;;;7.00;5.00;;;;;25.87;43.77;101729.25;5097906;27;45735;-82
2023/06/23 12:07:04;;;;;;;;;5.25;4.25;;;;;25.89;44.03;101723.72;5097640;27;47598;-80
2023/06/23 12:09:30;;;;;;;;;3.00;3.00;;;;;25.94;43.37;101725.84;5096834;27;47127;-77
2023/06/23 12:11:58;;;;;;;;;4.00;4.00;;;;;26.01;42.78;101740.22;5095751;27;45713;-77
2023/06/23 12:14:28;;;;;;;;;4.50;4.00;;;;;26.05;42.14;101734.31;5097251;27;45817;-76
2023/06/23 12:17:05;;;;;;;;;3.75;3.50;;;;;26.08;42.16;101736.63;5096819;27;46570;-76
2023/06/23 12:19:32;;;;;;;;;5.00;5.00;;;;;26.07;42.06;101721.53;5096678;27;47385;-76
2023/06/23 12:21:57;;;;;;;;;6.00;5.00;;;;;26.16;41.91;101719.59;5096677;27;45682;-75
2023/06/23 12:24:22;;;;;;;;;4.50;4.25;;;;;26.23;42.31;101726.78;5096850;27;45880;-75